Flight Track Log - Related Links

Times and Time Zones

All times are in EDT time to prevent confusion due to time zone crossing. See the AMX682 flight status page for this flight to view local times or setup timezone preferences in your user account.

Time Position Orientation Groundspeed Altitude Reporting Facility
EDT Latitude Longitude Course Direction KTS MPH feet Rate Location/Type
Sun 08:43:42 PM 19.4030 -99.1320 238° Southwest 213 245 9,100  Level FlightAware ADS-B
Sun 08:43:57 PM 19.3920 -99.1410 218° Southwest 205 236 9,600 1,600 Climbing FlightAware ADS-B
Sun 08:44:12 PM 19.3800 -99.1440 193° South 206 237 9,900 1,350 Climbing FlightAware ADS-B
Sun 08:44:37 PM 19.3560 -99.1340 159° South 218 251 10,500 1,200 Climbing FlightAware ADS-B
Sun 08:45:07 PM 19.3300 -99.1140 144° Southeast 250 288 11,000 900 Climbing FlightAware ADS-B
Sun 08:45:17 PM 19.3280 -99.1020 100° East 258 297 11,100 1,200 Climbing FlightAware ADS-B
Sun 08:45:37 PM 19.3340 -99.0770 76° East 276 318 11,600 1,200 Climbing FlightAware ADS-B
Sun 08:46:07 PM 19.3530 -99.0410 61° Northeast 302 348 12,100 1,875 Climbing FlightAware ADS-B
Sun 08:46:57 PM 19.3840 -98.9730 64° Northeast 310 357 14,100 2,337 Climbing FlightAware ADS-B
Sun 08:47:42 PM 19.4100 -98.9130 65° Northeast 315 362 15,800 1,200 Climbing FlightAware ADS-B
Sun 08:48:22 PM 19.4300 -98.8660 66° East 315 362 15,800  Level FlightAware ADS-B
Sun 08:49:02 PM 19.4510 -98.8180 65° Northeast 315 362 15,800  Level FlightAware ADS-B
Sun 08:49:42 PM 19.4720 -98.7710 65° Northeast 315 362 15,800  Level FlightAware ADS-B
Sun 08:50:22 PM 19.4930 -98.7230 65° Northeast 315 362 15,800  Level FlightAware ADS-B
Sun 08:51:12 PM 19.5190 -98.6640 65° Northeast 315 362 15,800  Level FlightAware ADS-B
Sun 08:51:42 PM 19.5350 -98.6280 65° Northeast 315 362 15,800 462 Level FlightAware ADS-B
Sun 08:54:00 PM 19.6609 -98.3794 North  Level FlightAware Approximate
Sun 08:55:00 PM 19.7800 -98.3592 13° North  Level FlightAware Approximate
Sun 08:56:00 PM 19.8978 -98.3307 10° North  Level FlightAware Approximate
Sun 08:57:00 PM 20.0168 -98.3091 10° North  Level FlightAware Approximate
Sun 08:58:00 PM 20.1360 -98.2885 North  Level FlightAware Approximate
Sun 08:59:00 PM 20.2554 -98.2685 North  Level FlightAware Approximate
Sun 09:00:00 PM 20.3731 -98.2401 13° North  Level FlightAware Approximate
Sun 09:01:00 PM 20.4914 -98.2167 North  Level FlightAware Approximate
Sun 09:02:00 PM 20.6100 -98.1935 11° North  Level FlightAware Approximate
Sun 09:03:00 PM 20.7285 -98.1686 11° North  Level FlightAware Approximate
Sun 09:04:00 PM 20.8472 -98.1449 North  Level FlightAware Approximate
Sun 09:05:00 PM 20.9663 -98.1231 11° North  Level FlightAware Approximate
Sun 09:06:00 PM 21.0849 -98.0987 11° North  Level FlightAware Approximate
Sun 09:07:00 PM 21.2035 -98.0743 11° North  Level FlightAware Approximate
Sun 09:08:00 PM 21.3221 -98.0499 11° North  Level FlightAware Approximate
Sun 09:09:00 PM 21.4407 -98.0253 11° North  Level FlightAware Approximate
Sun 09:10:00 PM 21.5593 -98.0008 11° North  Level FlightAware Approximate
Sun 09:11:00 PM 21.6779 -97.9762 11° North  Level FlightAware Approximate
Sun 09:12:00 PM 21.7965 -97.9516 11° North  Level FlightAware Approximate
Sun 09:13:00 PM 21.9151 -97.9269 11° North  Level FlightAware Approximate
Sun 09:14:00 PM 22.0337 -97.9022 11° North  Level FlightAware Approximate
Sun 09:15:00 PM 22.1523 -97.8774 11° North  Level FlightAware Approximate
Sun 09:16:00 PM 22.2708 -97.8526 11° North  Level FlightAware Approximate
Sun 09:17:00 PM 22.3891 -97.8262 12° North  Level FlightAware Approximate
Sun 09:18:00 PM 22.5074 -97.7995 12° North  Level FlightAware Approximate
Sun 09:19:00 PM 22.6256 -97.7728 12° North  Level FlightAware Approximate
Sun 09:20:00 PM 22.7438 -97.7461 12° North  Level FlightAware Approximate
Sun 09:21:00 PM 22.8621 -97.7193 12° North  Level FlightAware Approximate
Sun 09:22:00 PM 22.9803 -97.6924 12° North  Level FlightAware Approximate
Sun 09:23:00 PM 23.0985 -97.6655 12° North  Level FlightAware Approximate
Sun 09:24:00 PM 23.2167 -97.6385 12° North  Level FlightAware Approximate
Sun 09:25:00 PM 23.3349 -97.6115 12° North  Level FlightAware Approximate
Sun 09:26:00 PM 23.4531 -97.5843 12° North  Level FlightAware Approximate
Sun 09:27:00 PM 23.5713 -97.5571 12° North  Level FlightAware Approximate
Sun 09:28:00 PM 23.6894 -97.5299 12° North  Level FlightAware Approximate
Sun 09:29:00 PM 23.8076 -97.5026 12° North  Level FlightAware Approximate
Sun 09:30:00 PM 23.9258 -97.4753 12° North  Level FlightAware Approximate
Sun 09:31:00 PM 24.0439 -97.4479 12° North  Level FlightAware Approximate
Sun 09:32:00 PM 24.1621 -97.4204 12° North  Level FlightAware Approximate
Sun 09:32:47 PM 24.5400 -97.3410 12° North 437 503 35,000  Level FlightAware ADS-B
Sun 09:33:00 PM 24.2802 -97.3928 12° North  Level FlightAware Approximate
Sun 09:33:32 PM 24.6210 -97.3220 12° North 437 503 35,000  Level FlightAware ADS-B
Sun 09:34:32 PM 24.7470 -97.2920 12° North 433 498 35,000  Level FlightAware ADS-B
Sun 09:35:17 PM 24.8390 -97.2700 12° North 431 496 35,000  Level FlightAware ADS-B
Sun 09:35:57 PM 24.9190 -97.2510 12° North 431 496 35,000  Level FlightAware ADS-B
Sun 09:36:37 PM 24.9990 -97.2320 12° North 431 496 35,000  Level FlightAware ADS-B
Sun 09:37:22 PM 25.0850 -97.2120 12° North 430 495 35,000  Level FlightAware ADS-B
Sun 09:38:02 PM 25.1640 -97.1930 12° North 430 495 35,000  Level FlightAware ADS-B
Sun 09:38:42 PM 25.2400 -97.1750 12° North 430 495 35,000  Level FlightAware ADS-B
Sun 09:39:27 PM 25.3310 -97.1530 12° North 431 496 35,000  Level FlightAware ADS-B
Sun 09:40:07 PM 25.4090 -97.1340 12° North 431 496 35,000  Level FlightAware ADS-B
Sun 09:40:52 PM 25.4950 -97.1140 12° North 432 497 35,000  Level FlightAware ADS-B
Sun 09:41:32 PM 25.5740 -97.0950 12° North 433 498 35,000  Level FlightAware ADS-B
Sun 09:42:17 PM 25.6640 -97.0750 11° North 432 497 35,000 353 Level FlightAware ADS-B
Sun 09:42:57 PM 25.7410 -97.0520 15° North 442 509 35,500 825 Climbing FlightAware ADS-B
Sun 09:43:37 PM 25.8200 -97.0210 19° North 444 511 36,100 847 Climbing FlightAware ADS-B
Sun 09:44:22 PM 25.9080 -96.9860 20° North 443 510 36,700 635 Climbing FlightAware ADS-B
Sun 09:45:02 PM 25.9810 -96.9580 19° North 443 510 37,000 225 Climbing FlightAware ADS-B
Sun 09:45:42 PM 26.0600 -96.9270 19° North 442 509 37,000  Level FlightAware ADS-B
Sun 09:46:27 PM 26.1480 -96.8930 19° North 440 506 37,000  Level FlightAware ADS-B
Sun 09:47:07 PM 26.2260 -96.8620 20° North 438 504 37,000  Level FlightAware ADS-B
Sun 09:47:52 PM 26.3090 -96.8300 19° North 438 504 37,000  Level FlightAware ADS-B
Sun 09:48:32 PM 26.3840 -96.8000 20° North 437 503 37,000  Level FlightAware ADS-B
Sun 09:49:07 PM 26.4540 -96.7730 19° North 437 503 37,000  Level FlightAware ADS-B
Sun 09:49:52 PM 26.5290 -96.7440 19° North 437 503 37,000  Level FlightAware ADS-B
Sun 09:50:32 PM 26.5940 -96.7190 19° North 437 503 37,000  Level FlightAware ADS-B
Sun 09:51:22 PM 26.6750 -96.6880 19° North 437 503 37,000  Level FlightAware ADS-B
Sun 09:52:02 PM 26.7400 -96.6630 19° North 437 503 37,000  Level FlightAware ADS-B
Sun 09:52:42 PM 26.8050 -96.6380 19° North 437 503 37,000  Level FlightAware ADS-B
Sun 09:53:22 PM 26.8700 -96.6120 20° North 437 503 37,000  Level FlightAware ADS-B
Sun 09:54:12 PM 26.9510 -96.5810 19° North 437 503 37,000  Level FlightAware ADS-B
Sun 09:54:52 PM 27.0160 -96.5560 19° North 437 503 37,000  Level FlightAware ADS-B
Sun 09:55:32 PM 27.0810 -96.5310 19° North 437 503 37,000  Level FlightAware ADS-B
Sun 09:56:12 PM 27.1460 -96.5060 19° North 437 503 37,000  Level FlightAware ADS-B
Sun 09:56:52 PM 27.2110 -96.4810 19° North 437 503 37,000  Level FlightAware ADS-B
Sun 09:57:52 PM 27.4540 -96.3760 21° North 438 504 37,000  Level FlightAware ADS-B
Sun 09:58:37 PM 27.5460 -96.3380 20° North 435 501 37,000  Level FlightAware ADS-B
Sun 09:59:18 PM 27.6284 -96.3053 19° North 434 499 37,000  Level FlightAware ADS-B
Sun 09:59:49 PM 27.6870 -96.2817 20° North 434 499 37,000  Level FlightAware ADS-B
Sun 10:00:28 PM 27.7614 -96.2516 20° North 433 498 37,000  Level FlightAware ADS-B
Sun 10:01:14 PM 27.8476 -96.2168 20° North 433 498 37,000  Level FlightAware ADS-B
Sun 10:01:47 PM 27.9104 -96.1913 20° North 432 497 37,000  Level FlightAware ADS-B
Sun 10:02:22 PM 27.9758 -96.1650 20° North 432 497 37,000  Level FlightAware ADS-B
Sun 10:02:53 PM 28.0338 -96.1415 20° North 432 497 37,000  Level FlightAware ADS-B
Sun 10:03:30 PM 28.1049 -96.1125 20° North 431 496 37,000  Level FlightAware ADS-B
Sun 10:04:06 PM 28.1713 -96.0856 20° North 431 496 37,000  Level FlightAware ADS-B
Sun 10:04:37 PM 28.2293 -96.0619 20° North 430 495 37,000  Level FlightAware ADS-B
Sun 10:05:07 PM 28.2859 -96.0389 20° North 430 495 37,000  Level FlightAware ADS-B
Sun 10:05:38 PM 28.3437 -96.0153 20° North 431 496 37,000  Level FlightAware ADS-B
Sun 10:06:08 PM 28.4007 -95.9921 20° North 431 496 37,000  Level FlightAware ADS-B
Sun 10:06:38 PM 28.4580 -95.9686 20° North 432 497 37,000  Level FlightAware ADS-B
Sun 10:07:09 PM 28.5148 -95.9453 20° North 432 497 37,000  Level FlightAware ADS-B
Sun 10:07:39 PM 28.5719 -95.9220 20° North 432 497 37,000  Level FlightAware ADS-B
Sun 10:08:09 PM 28.6285 -95.8988 20° North 432 497 37,000  Level FlightAware ADS-B
Sun 10:08:40 PM 28.6880 -95.8744 20° North 433 498 37,000  Level FlightAware ADS-B
Sun 10:09:11 PM 28.7447 -95.8510 20° North 433 498 37,000  Level FlightAware ADS-B
Sun 10:09:41 PM 28.8025 -95.8272 20° North 433 498 37,000  Level FlightAware ADS-B
Sun 10:10:11 PM 28.8595 -95.8037 20° North 434 499 37,000  Level FlightAware ADS-B
Sun 10:10:42 PM 28.9168 -95.7800 20° North 434 499 37,000  Level FlightAware ADS-B
Sun 10:11:12 PM 28.9737 -95.7565 20° North 434 499 37,000  Level FlightAware ADS-B
Sun 10:11:42 PM 29.0307 -95.7329 20° North 434 499 37,000  Level FlightAware ADS-B
Sun 10:12:12 PM 29.0878 -95.7093 20° North 434 499 37,000  Level FlightAware ADS-B
Sun 10:12:42 PM 29.1450 -95.6856 20° North 433 498 37,000  Level FlightAware ADS-B
Sun 10:13:13 PM 29.2015 -95.6622 20° North 432 497 37,000  Level FlightAware ADS-B
Sun 10:13:43 PM 29.2581 -95.6386 20° North 431 496 37,000  Level FlightAware ADS-B
Sun 10:14:13 PM 29.3149 -95.6150 20° North 430 495 37,000  Level FlightAware ADS-B
Sun 10:14:43 PM 29.3718 -95.5912 20° North 430 495 37,000  Level FlightAware ADS-B
Sun 10:15:14 PM 29.4286 -95.5676 20° North 429 494 37,000  Level FlightAware ADS-B
Sun 10:15:44 PM 29.4853 -95.5439 20° North 428 493 37,000  Level FlightAware ADS-B
Sun 10:16:14 PM 29.5414 -95.5204 20° North 428 493 37,000  Level FlightAware ADS-B
Sun 10:16:45 PM 29.5986 -95.4957 21° North 430 495 37,000  Level FlightAware ADS-B
Sun 10:17:16 PM 29.6561 -95.4698 21° North 430 495 37,000  Level FlightAware ADS-B
Sun 10:17:46 PM 29.7118 -95.4446 21° North 430 495 37,000  Level FlightAware ADS-B
Sun 10:18:16 PM 29.7678 -95.4195 21° North 429 494 37,000  Level FlightAware ADS-B
Sun 10:18:47 PM 29.8248 -95.3942 21° North 430 495 37,000  Level FlightAware ADS-B
Sun 10:19:18 PM 29.8816 -95.3689 21° North 430 495 37,000  Level FlightAware ADS-B
Sun 10:19:48 PM 29.9381 -95.3437 21° North 431 496 37,000  Level FlightAware ADS-B
Sun 10:20:19 PM 29.9951 -95.3183 21° North 432 497 37,000  Level FlightAware ADS-B
Sun 10:20:48 PM 30.0499 -95.2935 21° North 432 497 37,000  Level FlightAware ADS-B
Sun 10:21:18 PM 30.1061 -95.2682 21° North 431 496 37,000  Level FlightAware ADS-B
Sun 10:21:51 PM 30.1662 -95.2411 21° North 429 494 37,000  Level FlightAware ADS-B
Sun 10:22:22 PM 30.2237 -95.2153 21° North 428 493 37,000  Level FlightAware ADS-B
Sun 10:22:54 PM 30.2821 -95.1889 21° North 428 493 37,000  Level FlightAware ADS-B
Sun 10:23:24 PM 30.3386 -95.1635 21° North 428 493 37,000  Level FlightAware ADS-B
Sun 10:23:54 PM 30.3943 -95.1383 21° North 430 495 37,000  Level FlightAware ADS-B
Sun 10:24:24 PM 30.4505 -95.1128 21° North 431 496 37,000  Level FlightAware ADS-B
Sun 10:24:55 PM 30.5063 -95.0875 21° North 430 495 37,000  Level FlightAware ADS-B
Sun 10:25:26 PM 30.5644 -95.0611 21° North 431 496 37,000  Level FlightAware ADS-B
Sun 10:25:56 PM 30.6203 -95.0357 21° North 431 496 37,000  Level FlightAware ADS-B
Sun 10:26:26 PM 30.6764 -95.0102 21° North 431 496 37,000  Level FlightAware ADS-B
Sun 10:26:56 PM 30.7325 -94.9847 21° North 431 496 37,000  Level FlightAware ADS-B
Sun 10:27:26 PM 30.7885 -94.9593 21° North 430 495 37,000  Level FlightAware ADS-B
Sun 10:27:57 PM 30.8444 -94.9338 21° North 429 494 37,000  Level FlightAware ADS-B
Sun 10:28:28 PM 30.9015 -94.9078 21° North 429 494 37,000  Level FlightAware ADS-B
Sun 10:28:58 PM 30.9576 -94.8820 22° Northeast 428 493 37,000  Level FlightAware ADS-B
Sun 10:29:28 PM 31.0136 -94.8564 21° North 428 493 37,000  Level FlightAware ADS-B
Sun 10:29:59 PM 31.0694 -94.8307 22° Northeast 426 490 37,000  Level FlightAware ADS-B
Sun 10:30:29 PM 31.1245 -94.8054 21° North 425 489 37,000  Level FlightAware ADS-B
Sun 10:30:59 PM 31.1802 -94.7798 21° North 424 488 37,000  Level FlightAware ADS-B
Sun 10:31:32 PM 31.2391 -94.7527 21° North 424 488 37,000  Level FlightAware ADS-B
Sun 10:32:02 PM 31.2947 -94.7271 21° North 426 490 37,000  Level FlightAware ADS-B
Sun 10:32:33 PM 31.3514 -94.7009 22° Northeast 425 489 37,000  Level FlightAware ADS-B
Sun 10:33:03 PM 31.4070 -94.6752 22° Northeast 426 490 37,000  Level FlightAware ADS-B
Sun 10:33:34 PM 31.4631 -94.6492 22° Northeast 426 490 37,000  Level FlightAware ADS-B
Sun 10:34:05 PM 31.5191 -94.6232 22° Northeast 427 491 37,000  Level FlightAware ADS-B
Sun 10:34:35 PM 31.5747 -94.5974 22° Northeast 426 490 37,000  Level FlightAware ADS-B
Sun 10:35:12 PM 31.6420 -94.5661 22° Northeast 426 490 37,000  Level FlightAware ADS-B
Sun 10:35:42 PM 31.6983 -94.5396 22° Northeast 427 491 37,000  Level FlightAware ADS-B
Sun 10:36:13 PM 31.7545 -94.5133 22° Northeast 428 493 37,000  Level FlightAware ADS-B
Sun 10:36:44 PM 31.8114 -94.4869 22° Northeast 428 493 37,000  Level FlightAware ADS-B
Sun 10:37:25 PM 31.8880 -94.4512 22° Northeast 428 493 37,000  Level FlightAware ADS-B
Sun 10:38:00 PM 31.9515 -94.4217 22° Northeast 429 494 37,000  Level FlightAware ADS-B
Sun 10:38:55 PM 32.0536 -94.3735 22° Northeast 429 494 37,000  Level FlightAware ADS-B
Sun 10:39:28 PM 32.1092 -94.3478 22° Northeast 428 493 37,000  Level Fort Worth Center
Sun 10:40:28 PM 32.2164 -94.2925 24° Northeast 428 493 37,000  Level Fort Worth Center
Sun 10:41:28 PM 32.3239 -94.2419 22° Northeast 421 484 37,000  Level Fort Worth Center
Sun 10:46:47 PM 32.9080 -93.9680 22° Northeast 413 475 37,000  Level FlightAware ADS-B
Sun 10:47:22 PM 32.9670 -93.9410 21° North 413 475 37,000  Level FlightAware ADS-B
Sun 10:48:12 PM 33.0430 -93.9060 21° North 413 475 37,000  Level FlightAware ADS-B
Sun 10:48:52 PM 33.1340 -93.8600 23° Northeast 420 483 37,000  Level FlightAware ADS-B
Sun 10:49:37 PM 33.2110 -93.8220 22° Northeast 419 482 37,000  Level FlightAware ADS-B
Sun 10:50:32 PM 33.3050 -93.7770 22° Northeast 418 481 37,000  Level FlightAware ADS-B
Sun 10:51:12 PM 33.3650 -93.7480 22° Northeast 418 481 37,000  Level FlightAware ADS-B
Sun 10:51:52 PM 33.4260 -93.7180 22° Northeast 418 481 37,000  Level FlightAware ADS-B
Sun 10:52:32 PM 33.4870 -93.6880 22° Northeast 418 481 37,000  Level FlightAware ADS-B
Sun 10:53:12 PM 33.5480 -93.6590 22° Northeast 418 481 37,000  Level FlightAware ADS-B
Sun 10:54:02 PM 33.6250 -93.6220 22° Northeast 418 481 37,000  Level FlightAware ADS-B
Sun 10:54:42 PM 33.6860 -93.5920 22° Northeast 418 481 37,000  Level FlightAware ADS-B
Sun 10:55:22 PM 33.7470 -93.5630 22° Northeast 418 481 37,000  Level FlightAware ADS-B
Sun 10:56:02 PM 33.8070 -93.5330 23° Northeast 418 481 37,000  Level FlightAware ADS-B
Sun 10:56:42 PM 33.8680 -93.5040 22° Northeast 418 481 37,000  Level FlightAware ADS-B
Sun 10:57:27 PM 34.0490 -93.4130 23° Northeast 424 488 37,000  Level FlightAware ADS-B
Sun 10:58:07 PM 34.1110 -93.3830 22° Northeast 424 488 37,000  Level FlightAware ADS-B
Sun 10:58:47 PM 34.1730 -93.3530 22° Northeast 424 488 37,000  Level FlightAware ADS-B
Sun 10:59:37 PM 34.2500 -93.3150 22° Northeast 424 488 37,000  Level FlightAware ADS-B
Sun 11:00:17 PM 34.3120 -93.2850 22° Northeast 424 488 37,000  Level FlightAware ADS-B
Sun 11:00:57 PM 34.3740 -93.2550 22° Northeast 424 488 37,000  Level FlightAware ADS-B
Sun 11:01:37 PM 34.4360 -93.2240 22° Northeast 424 488 37,000  Level FlightAware ADS-B
Sun 11:02:27 PM 34.5130 -93.1870 22° Northeast 424 488 37,000  Level FlightAware ADS-B
Sun 11:03:07 PM 34.5750 -93.1560 22° Northeast 424 488 37,000  Level FlightAware ADS-B
Sun 11:03:47 PM 34.6370 -93.1260 22° Northeast 424 488 37,000  Level FlightAware ADS-B
Sun 11:04:27 PM 34.6990 -93.0950 22° Northeast 424 488 37,000  Level FlightAware ADS-B
Sun 11:05:17 PM 34.7760 -93.0570 22° Northeast 424 488 37,000  Level FlightAware ADS-B
Sun 11:05:57 PM 34.8380 -93.0270 22° Northeast 424 488 37,000  Level FlightAware ADS-B
Sun 11:06:37 PM 34.9000 -92.9970 22° Northeast 424 488 37,000  Level FlightAware ADS-B
Sun 11:07:44 PM 35.1408 -92.8683 22° Northeast 397 457 37,000  Level Memphis Center
Sun 11:08:44 PM 35.2439 -92.8206 21° North 397 457 37,000  Level Memphis Center
Sun 11:09:44 PM 35.3450 -92.7675 23° Northeast 391 450 37,000  Level Memphis Center
Sun 11:10:44 PM 35.4358 -92.7142 26° Northeast 391 450 37,000  Level Memphis Center
Sun 11:11:44 PM 35.5367 -92.6636 22° Northeast 391 450 37,000  Level Memphis Center
Sun 11:12:44 PM 35.6400 -92.6128 22° Northeast 391 450 37,000  Level Memphis Center
Sun 11:13:44 PM 35.7411 -92.5592 23° Northeast 391 450 37,000  Level Memphis Center
Sun 11:14:44 PM 35.8397 -92.5106 22° Northeast 391 450 37,000  Level Memphis Center
Sun 11:15:44 PM 35.9408 -92.4567 23° Northeast 391 450 37,000  Level Memphis Center
Sun 11:16:44 PM 36.0417 -92.4056 22° Northeast 391 450 37,000  Level Memphis Center
Sun 11:17:44 PM 36.1428 -92.3514 23° Northeast 391 450 37,000  Level Memphis Center
Sun 11:18:44 PM 36.2417 -92.2997 23° Northeast 391 450 37,000  Level Memphis Center
Sun 11:19:44 PM 36.3467 -92.2483 22° Northeast 391 450 37,000  Level Memphis Center
Sun 11:20:44 PM 36.4475 -92.1939 23° Northeast 397 457 37,000  Level Memphis Center
Sun 11:21:44 PM 36.5503 -92.1392 23° Northeast 397 457 37,000  Level Memphis Center
Sun 11:24:08 PM 36.7953 -92.0044 24° Northeast 396 456 37,000  Level Kansas City Center
Sun 11:25:09 PM 36.8967 -91.9497 23° Northeast 395 455 37,000  Level Kansas City Center
Sun 11:26:10 PM 36.9981 -91.8972 22° Northeast 394 453 37,000  Level Kansas City Center
Sun 11:27:11 PM 37.1000 -91.8436 23° Northeast 396 456 37,000  Level Kansas City Center
Sun 11:28:12 PM 37.2017 -91.7892 23° Northeast 398 458 37,000  Level Kansas City Center
Sun 11:29:12 PM 37.3036 -91.7344 23° Northeast 399 459 37,000  Level Kansas City Center
Sun 11:30:13 PM 37.4264 -91.6681 23° Northeast 400 460 37,000  Level Kansas City Center
Sun 11:31:14 PM 37.5281 -91.6142 23° Northeast 399 459 37,000  Level Kansas City Center
Sun 11:32:15 PM 37.6300 -91.5594 23° Northeast 398 458 37,000  Level Kansas City Center
Sun 11:33:16 PM 37.7308 -91.5036 24° Northeast 398 458 37,000  Level Kansas City Center
Sun 11:38:52 PM 38.2980 -91.1930 24° Northeast 400 460 37,000  Level FlightAware ADS-B
Sun 11:39:32 PM 38.3670 -91.1540 24° Northeast 402 463 37,000  Level FlightAware ADS-B
Sun 11:40:17 PM 38.4440 -91.1120 23° Northeast 402 463 37,000  Level FlightAware ADS-B
Sun 11:40:57 PM 38.5120 -91.0730 24° Northeast 403 464 37,000  Level FlightAware ADS-B
Sun 11:41:42 PM 38.5920 -91.0290 23° Northeast 405 466 37,000  Level FlightAware ADS-B
Sun 11:42:17 PM 38.6490 -90.9970 24° Northeast 405 466 37,000  Level FlightAware ADS-B
Sun 11:42:57 PM 38.7100 -90.9640 23° Northeast 405 466 37,000  Level FlightAware ADS-B
Sun 11:43:47 PM 38.8020 -90.9130 23° Northeast 403 464 37,000  Level FlightAware ADS-B
Sun 11:44:27 PM 38.8750 -90.8740 23° Northeast 404 465 37,000  Level FlightAware ADS-B
Sun 11:45:07 PM 38.9430 -90.8370 23° Northeast 404 465 37,000  Level FlightAware ADS-B
Sun 11:45:52 PM 39.0220 -90.7930 23° Northeast 405 466 37,000  Level FlightAware ADS-B
Sun 11:46:32 PM 39.0860 -90.7590 22° Northeast 406 467 37,000  Level FlightAware ADS-B
Sun 11:47:17 PM 39.1670 -90.7140 23° Northeast 409 471 37,000  Level FlightAware ADS-B
Sun 11:47:57 PM 39.2340 -90.6770 23° Northeast 411 473 37,000  Level FlightAware ADS-B
Sun 11:48:37 PM 39.3070 -90.6370 23° Northeast 412 474 37,000  Level FlightAware ADS-B
Sun 11:49:22 PM 39.3840 -90.5950 23° Northeast 410 472 37,000  Level FlightAware ADS-B
Sun 11:50:02 PM 39.4580 -90.5550 23° Northeast 411 473 37,000  Level FlightAware ADS-B
Sun 11:50:47 PM 39.5360 -90.5110 24° Northeast 411 473 37,000 -71 Level FlightAware ADS-B
Sun 11:51:27 PM 39.6050 -90.4730 23° Northeast 412 474 36,900 -600 Descending FlightAware ADS-B
Sun 11:52:07 PM 39.6750 -90.4340 23° Northeast 408 470 36,200 -988 Descending FlightAware ADS-B
Sun 11:52:52 PM 39.7520 -90.3910 23° Northeast 407 468 35,500 -847 Descending FlightAware ADS-B
Sun 11:53:32 PM 39.8220 -90.3520 23° Northeast 409 471 35,000 -353 Descending FlightAware ADS-B
Sun 11:54:17 PM 39.9020 -90.3070 23° Northeast 409 471 35,000  Level FlightAware ADS-B
Sun 11:54:57 PM 39.9680 -90.2700 23° Northeast 409 471 35,000  Level FlightAware ADS-B
Sun 11:55:37 PM 40.0380 -90.2310 23° Northeast 410 472 35,000  Level FlightAware ADS-B
Sun 11:56:22 PM 40.1200 -90.1850 23° Northeast 412 474 35,000  Level FlightAware ADS-B
Sun 11:57:02 PM 40.1900 -90.1450 24° Northeast 418 481 35,000  Level FlightAware ADS-B
Sun 11:57:47 PM 40.2690 -90.1000 23° Northeast 421 484 35,000  Level FlightAware ADS-B
Sun 11:58:27 PM 40.3400 -90.0600 23° Northeast 423 487 35,000  Level FlightAware ADS-B
Sun 11:59:07 PM 40.4130 -90.0180 24° Northeast 428 493 35,000 -212 Level FlightAware ADS-B
Sun 11:59:52 PM 40.4940 -89.9720 23° Northeast 429 494 34,700 -635 Descending FlightAware ADS-B
Mon 12:00:32 AM 40.5660 -89.9310 23° Northeast 429 494 34,100 -975 Descending FlightAware ADS-B
Mon 12:01:12 AM 40.6400 -89.8880 24° Northeast 433 498 33,400 -988 Descending FlightAware ADS-B
Mon 12:01:57 AM 40.7220 -89.8420 23° Northeast 434 499 32,700 -1,482 Descending FlightAware ADS-B
Mon 12:02:37 AM 40.7970 -89.7980 24° Northeast 428 493 31,300 -2,118 Descending FlightAware ADS-B
Mon 12:03:22 AM 40.8770 -89.7520 23° Northeast 428 493 29,700 -2,118 Descending FlightAware ADS-B
Mon 12:04:02 AM 40.9460 -89.7120 24° Northeast 420 483 28,300 -2,175 Descending FlightAware ADS-B
Mon 12:04:42 AM 41.0200 -89.6690 24° Northeast 409 471 26,800 -2,188 Descending FlightAware ADS-B
Mon 12:05:27 AM 41.0970 -89.6240 24° Northeast 395 455 25,200 -2,047 Descending FlightAware ADS-B
Mon 12:06:07 AM 41.1590 -89.5780 29° Northeast 379 436 23,900 -1,855 Descending FlightAware ADS-B
Mon 12:06:22 AM 41.1740 -89.5520 53° Northeast 373 429 23,500 -1,745 Descending FlightAware ADS-B
Mon 12:07:02 AM 41.2070 -89.4720 61° Northeast 367 422 22,300 -1,765 Descending FlightAware ADS-B
Mon 12:07:47 AM 41.2430 -89.3830 62° Northeast 365 420 21,000 -1,765 Descending FlightAware ADS-B
Mon 12:08:27 AM 41.2750 -89.3030 62° Northeast 358 412 19,800 -1,800 Descending FlightAware ADS-B
Mon 12:09:07 AM 41.3060 -89.2260 62° Northeast 354 407 18,600 -1,733 Descending FlightAware ADS-B
Mon 12:09:57 AM 41.3440 -89.1320 62° Northeast 346 398 17,200 -1,667 Descending FlightAware ADS-B
Mon 12:10:37 AM 41.3740 -89.0570 62° Northeast 338 389 16,100 -1,650 Descending FlightAware ADS-B
Mon 12:11:17 AM 41.4030 -88.9830 62° Northeast 331 381 15,000 -1,624 Descending FlightAware ADS-B
Mon 12:12:02 AM 41.4340 -88.9060 62° Northeast 316 364 13,800 -1,553 Descending FlightAware ADS-B
Mon 12:12:42 AM 41.4620 -88.8350 62° Northeast 310 357 12,800 -1,482 Descending FlightAware ADS-B
Mon 12:13:27 AM 41.4910 -88.7610 62° Northeast 305 351 11,700 -1,341 Descending FlightAware ADS-B
Mon 12:14:07 AM 41.5170 -88.6950 62° Northeast 295 339 10,900 -600 Descending FlightAware ADS-B
Mon 12:14:47 AM 41.5430 -88.6300 62° Northeast 293 337 10,900  Level FlightAware ADS-B
Mon 12:15:32 AM 41.5700 -88.5610 62° Northeast 292 336 10,900  Level FlightAware ADS-B
Mon 12:16:12 AM 41.5960 -88.4980 61° Northeast 289 333 10,900  Level FlightAware ADS-B
Mon 12:16:57 AM 41.6300 -88.4300 56° Northeast 290 334 10,900  Level FlightAware ADS-B
Mon 12:17:37 AM 41.6630 -88.3740 52° Northeast 274 315 10,900 -825 Level FlightAware ADS-B
Mon 12:18:17 AM 41.6940 -88.3210 52° Northeast 278 320 9,800 -1,527 Descending FlightAware ADS-B
Mon 12:18:32 AM 41.7050 -88.3020 52° Northeast 276 318 9,500 -1,467 Descending FlightAware ADS-B
Mon 12:19:02 AM 41.7290 -88.2610 52° Northeast 277 319 8,700 -1,527 Descending FlightAware ADS-B
Mon 12:19:27 AM 41.7490 -88.2270 52° Northeast 272 313 8,100 -1,418 Descending FlightAware ADS-B
Mon 12:19:57 AM 41.7720 -88.1870 52° Northeast 268 308 7,400 -1,309 Descending FlightAware ADS-B
Mon 12:20:22 AM 41.7910 -88.1550 51° Northeast 272 313 6,900 -750 Descending FlightAware ADS-B
Mon 12:20:37 AM 41.8070 -88.1390 37° Northeast 275 316 6,900  Level FlightAware ADS-B
Mon 12:20:52 AM 41.8250 -88.1350 North 281 323 6,900  Level FlightAware ADS-B
Mon 12:21:22 AM 41.8620 -88.1390 355° North 279 321 6,900  Level FlightAware ADS-B
Mon 12:21:47 AM 41.8950 -88.1430 355° North 256 295 6,900  Level FlightAware ADS-B
Mon 12:22:17 AM 41.9300 -88.1480 354° North 244 281 6,900  Level FlightAware ADS-B
Mon 12:22:42 AM 41.9570 -88.1510 355° North 242 278 6,900 -327 Level FlightAware ADS-B
Mon 12:23:12 AM 41.9900 -88.1610 347° North 245 282 6,600 -900 Descending FlightAware ADS-B
Mon 12:23:42 AM 42.0210 -88.1790 337° Northwest 248 285 6,000 -1,091 Descending FlightAware ADS-B
Mon 12:24:07 AM 42.0480 -88.1950 336° Northwest 244 281 5,600 -764 Descending FlightAware ADS-B
Mon 12:24:37 AM 42.0770 -88.2120 336° Northwest 238 274 5,300 -764 Descending FlightAware ADS-B
Mon 12:25:02 AM 42.1000 -88.2330 326° Northwest 238 274 4,900 -436 Descending FlightAware ADS-B
Mon 12:25:32 AM 42.1240 -88.2620 318° Northwest 215 247 4,900  Level FlightAware ADS-B
Mon 12:26:02 AM 42.1430 -88.2850 318° Northwest 205 236 4,900  Level FlightAware ADS-B
Mon 12:26:27 AM 42.1660 -88.3040 329° Northwest 202 232 4,900  Level FlightAware ADS-B
Mon 12:26:57 AM 42.1890 -88.2870 29° Northeast 197 227 4,900  Level FlightAware ADS-B
Mon 12:27:12 AM 42.1970 -88.2740 50° Northeast 195 224 4,900  Level FlightAware ADS-B
Mon 12:27:22 AM 42.1990 -88.2620 77° East 190 219 4,900 -300 Level FlightAware ADS-B
Mon 12:27:52 AM 42.1890 -88.2300 113° Southeast 184 212 4,700 -800 Descending FlightAware ADS-B
Mon 12:28:22 AM 42.1770 -88.1990 118° Southeast 185 213 4,100 -873 Descending FlightAware ADS-B
Mon 12:28:47 AM 42.1670 -88.1720 117° Southeast 186 214 3,900 -218 Descending FlightAware ADS-B
Mon 12:29:17 AM 42.1550 -88.1420 118° Southeast 186 214 3,900  Level FlightAware ADS-B
Mon 12:29:27 AM 42.1510 -88.1310 116° Southeast 185 213 3,900 -750 Level FlightAware ADS-B
Mon 12:29:57 AM 42.1380 -88.1020 121° Southeast 185 213 3,400 -1,000 Descending FlightAware ADS-B
Mon 12:30:27 AM 42.1190 -88.0780 137° Southeast 183 211 2,900 -982 Descending FlightAware ADS-B
Mon 12:30:52 AM 42.1030 -88.0600 140° Southeast 180 207 2,500 -750 Descending FlightAware ADS-B
Mon 12:31:07 AM 42.0940 -88.0490 138° Southeast 179 206 2,400 -267 Descending FlightAware ADS-B
Mon 12:31:37 AM 42.0750 -88.0290 142° Southeast 169 194 2,300 -133 Descending FlightAware ADS-B
Mon 12:31:52 AM 42.0670 -88.0190 137° Southeast 166 191 2,300 -150 Level FlightAware ADS-B
Mon 12:32:17 AM 42.0520 -88.0020 140° Southeast 159 183 2,200 -450 Descending FlightAware ADS-B
Mon 12:32:32 AM 42.0430 -87.9920 140° Southeast 156 180 2,000 -900 Descending FlightAware ADS-B
Mon 12:32:57 AM 42.0300 -87.9770 139° Southeast 150 173 1,600 -900 Descending FlightAware ADS-B
Mon 12:33:12 AM 42.0220 -87.9690 143° Southeast 148 170 1,400 -800 Descending FlightAware ADS-B
Mon 12:33:42 AM 42.0060 -87.9500 139° Southeast 158 182 1,000 -750 Descending FlightAware ADS-B
Mon 12:33:52 AM 42.0000 -87.9440 143° Southeast 156 180 900 -750 Descending FlightAware ADS-B
Mon 12:34:22 AM 41.9850 -87.9280 142° Southeast 153 176 500 -800 Descending FlightAware ADS-B

Login

Don't have an account? Register now (free) for customized features, flight alerts, and more!